Time;durP1;ratioP1;P1;durP2;ratioP2;P2;SDS_P1;SDS_P2;PMS_P1;PMS_P2;Temp;Humidity;BMP_temperature;BMP_pressure;BME280_temperature;BME280_humidity;BME280_pressure;Samples;Min_cycle;Max_cycle;Signal;HPM_P1;HPM_P2
2021/08/19 00:01:36;;;;;;;3.58;2.30;;;17.10;79.30;;;;;;5095290;28;20130;-88
2021/08/19 00:04:01;;;;;;;4.18;1.65;;;17.00;80.40;;;;;;5096925;28;20028;-87
2021/08/19 00:06:27;;;;;;;2.40;1.20;;;16.90;81.50;;;;;;5096715;28;20078;-87
2021/08/19 00:08:52;;;;;;;2.55;1.52;;;16.90;79.30;;;;;;5096727;28;20510;-87
2021/08/19 00:11:18;;;;;;;2.35;1.40;;;16.60;81.30;;;;;;5096951;28;20058;-87
2021/08/19 00:13:44;;;;;;;1.95;1.00;;;16.50;82.60;;;;;;5096757;28;20038;-88
2021/08/19 00:16:09;;;;;;;1.42;0.82;;;16.40;83.50;;;;;;5096430;28;20110;-87
2021/08/19 00:18:39;;;;;;;2.80;1.20;;;16.30;81.50;;;;;;5096011;28;20044;-87
2021/08/19 00:21:06;;;;;;;1.30;1.00;;;16.20;81.70;;;;;;5096577;28;20096;-87
2021/08/19 00:23:32;;;;;;;1.67;1.13;;;16.20;82.80;;;;;;5115370;28;20019;-87
2021/08/19 00:25:58;;;;;;;2.03;1.10;;;16.20;83.20;;;;;;5096875;28;20072;-88
2021/08/19 00:28:24;;;;;;;1.98;1.20;;;16.10;83.50;;;;;;5095925;28;20106;-86
2021/08/19 00:30:49;;;;;;;1.73;1.10;;;16.00;83.70;;;;;;5114714;28;20040;-88
2021/08/19 00:33:15;;;;;;;1.52;1.10;;;15.90;84.70;;;;;;5095843;28;20019;-87
2021/08/19 00:35:41;;;;;;;2.53;1.13;;;15.90;84.60;;;;;;5096333;28;20046;-87
2021/08/19 00:38:06;;;;;;;1.95;1.20;;;15.80;85.10;;;;;;5096694;28;20026;-88
2021/08/19 00:40:34;;;;;;;3.08;1.63;;;15.70;84.00;;;;;;5112689;28;20032;-89
2021/08/19 00:43:03;;;;;;;1.55;1.25;;;15.70;85.00;;;;;;5095476;28;20035;-87
2021/08/19 00:45:29;;;;;;;2.22;1.55;;;15.70;85.30;;;;;;5114506;28;20052;-87
2021/08/19 00:47:55;;;;;;;3.03;1.45;;;15.60;85.50;;;;;;5095587;28;20024;-87
2021/08/19 00:50:20;;;;;;;2.88;1.30;;;15.60;85.90;;;;;;5095928;28;20020;-87
2021/08/19 00:52:46;;;;;;;2.28;1.50;;;15.60;84.70;;;;;;5111203;28;20024;-87
2021/08/19 00:55:16;;;;;;;2.88;1.30;;;15.60;84.40;;;;;;5095745;28;20093;-87
2021/08/19 00:57:42;;;;;;;3.22;1.40;;;15.70;84.50;;;;;;5095881;28;20031;-88
2021/08/19 01:00:09;;;;;;;2.78;1.50;;;15.70;86.20;;;;;;5095395;28;20042;-87
2021/08/19 01:02:35;;;;;;;1.63;1.10;;;15.70;85.00;;;;;;5079389;28;20385;-87
2021/08/19 01:05:01;;;;;;;2.00;1.35;;;15.90;85.60;;;;;;5096123;28;20038;-88
2021/08/19 01:07:26;;;;;;;2.28;1.20;;;15.90;84.90;;;;;;5095403;28;20024;-88
2021/08/19 01:09:52;;;;;;;1.67;1.20;;;16.00;84.40;;;;;;5095698;28;20031;-87
2021/08/19 01:12:17;;;;;;;3.53;1.30;;;16.10;83.80;;;;;;5095245;28;20380;-87
2021/08/19 01:14:45;;;;;;;2.40;1.30;;;16.10;83.10;;;;;;5095530;28;20514;-88
2021/08/19 01:17:14;;;;;;;2.10;1.38;;;16.10;83.60;;;;;;5094921;28;20038;-88
2021/08/19 01:19:48;;;;;;;3.88;1.33;;;16.10;83.10;;;;;;5129366;27;20536;-87
2021/08/19 01:22:16;;;;;;;4.18;1.50;;;16.10;82.70;;;;;;5095185;28;20032;-89
2021/08/19 01:24:42;;;;;;;2.53;1.38;;;16.10;82.60;;;;;;5095577;28;20480;-88
2021/08/19 01:27:19;;;;;;;2.47;1.77;;;16.10;82.30;;;;;;5095234;28;20023;-87
2021/08/19 01:29:46;;;;;;;2.67;1.10;;;16.10;82.40;;;;;;5114008;27;20023;-87
2021/08/19 01:32:12;;;;;;;3.30;1.48;;;16.10;82.60;;;;;;5095229;28;20537;-87
2021/08/19 01:34:40;;;;;;;3.28;1.48;;;16.00;82.80;;;;;;5092704;28;20032;-87
2021/08/19 01:37:06;;;;;;;2.38;1.15;;;16.00;82.80;;;;;;5095362;28;20020;-89
2021/08/19 01:39:33;;;;;;;2.35;1.30;;;15.90;82.30;;;;;;5094618;28;20031;-87
2021/08/19 01:41:59;;;;;;;2.70;1.27;;;15.90;82.80;;;;;;5094443;28;20028;-88
2021/08/19 01:44:25;;;;;;;3.60;1.40;;;15.90;82.30;;;;;;5095100;28;20027;-87
2021/08/19 01:46:54;;;;;;;4.18;1.45;;;15.90;81.70;;;;;;5113692;28;20396;-87
2021/08/19 01:49:19;;;;;;;2.55;1.33;;;15.80;82.30;;;;;;5095268;28;20472;-87
2021/08/19 01:51:45;;;;;;;1.77;1.40;;;15.90;82.70;;;;;;5113358;28;20034;-87
2021/08/19 01:54:11;;;;;;;3.80;1.52;;;16.00;82.70;;;;;;5094630;28;20457;-87
2021/08/19 01:56:37;;;;;;;3.13;1.40;;;15.90;82.70;;;;;;5094962;28;20027;-89
2021/08/19 01:59:02;;;;;;;2.63;1.25;;;15.90;82.00;;;;;;5095698;28;20024;-87
2021/08/19 02:01:28;;;;;;;3.20;1.70;;;15.90;82.30;;;;;;5094182;28;20043;-88
2021/08/19 02:03:55;;;;;;;2.38;1.30;;;15.90;82.40;;;;;;5095014;28;20032;-87
2021/08/19 02:06:20;;;;;;;2.00;0.90;;;16.00;82.50;;;;;;5094666;28;20028;-87
2021/08/19 02:08:47;;;;;;;1.90;1.00;;;16.00;82.70;;;;;;5094771;28;20020;-88
2021/08/19 02:11:13;;;;;;;2.38;1.52;;;16.00;82.50;;;;;;5113362;28;20544;-87
2021/08/19 02:13:39;;;;;;;2.20;1.60;;;16.00;82.40;;;;;;5094285;28;20502;-87
2021/08/19 02:16:05;;;;;;;2.25;1.25;;;16.00;83.10;;;;;;5094465;28;20020;-87
2021/08/19 02:18:31;;;;;;;2.88;1.40;;;16.00;82.60;;;;;;5094539;28;20056;-87
2021/08/19 02:20:57;;;;;;;2.50;1.58;;;16.10;82.10;;;;;;5094670;28;20042;-88
2021/08/19 02:23:23;;;;;;;2.88;1.35;;;16.00;82.60;;;;;;5094402;28;20042;-87
2021/08/19 02:25:48;;;;;;;2.63;1.40;;;16.10;82.10;;;;;;5095139;28;20020;-87
2021/08/19 02:28:14;;;;;;;6.13;1.50;;;16.10;82.50;;;;;;5094461;28;20039;-88
2021/08/19 02:30:40;;;;;;;2.05;1.60;;;16.10;82.30;;;;;;5094014;28;20127;-88
2021/08/19 02:33:06;;;;;;;2.42;1.30;;;16.10;83.40;;;;;;5094573;28;20019;-87
2021/08/19 02:35:32;;;;;;;3.28;1.30;;;16.10;82.60;;;;;;5094635;28;20507;-86
2021/08/19 02:38:00;;;;;;;3.55;1.70;;;16.10;82.50;;;;;;5095002;28;20016;-87
2021/08/19 02:40:27;;;;;;;3.45;1.55;;;16.10;82.10;;;;;;5094169;28;20027;-87
2021/08/19 02:42:53;;;;;;;4.88;1.77;;;16.10;82.00;;;;;;5094058;28;20063;-88
2021/08/19 02:45:19;;;;;;;2.95;1.40;;;16.00;81.90;;;;;;5093728;28;20051;-87
2021/08/19 02:47:44;;;;;;;3.80;1.40;;;16.00;82.90;;;;;;5112566;28;20024;-87
2021/08/19 02:50:11;;;;;;;3.08;1.67;;;16.00;81.90;;;;;;5094455;28;20480;-87
2021/08/19 02:52:36;;;;;;;3.33;1.55;;;16.00;81.90;;;;;;5112828;28;20076;-87
2021/08/19 02:55:03;;;;;;;2.08;1.40;;;15.90;81.60;;;;;;5094301;28;20023;-87
2021/08/19 02:57:29;;;;;;;3.50;1.30;;;16.00;82.00;;;;;;5093297;28;20373;-87
2021/08/19 02:59:55;;;;;;;2.13;1.30;;;16.00;81.90;;;;;;5093553;28;20023;-87
2021/08/19 03:02:20;;;;;;;3.20;1.40;;;16.00;82.10;;;;;;5093959;28;20054;-87
2021/08/19 03:04:46;;;;;;;2.58;1.40;;;16.00;81.30;;;;;;5094806;28;20047;-87
2021/08/19 03:07:13;;;;;;;3.17;1.40;;;16.00;81.70;;;;;;5112146;28;20031;-87
2021/08/19 03:09:39;;;;;;;2.67;1.20;;;16.00;81.90;;;;;;5093941;28;20430;-88
2021/08/19 03:12:05;;;;;;;3.67;1.70;;;16.00;81.90;;;;;;5093722;28;20475;-87
2021/08/19 03:14:32;;;;;;;2.58;1.20;;;16.00;81.60;;;;;;5093735;28;20480;-88
2021/08/19 03:16:59;;;;;;;2.55;1.65;;;16.00;81.60;;;;;;5094592;28;20110;-87
2021/08/19 03:19:24;;;;;;;3.55;1.45;;;16.00;81.00;;;;;;5093564;28;20518;-88
2021/08/19 03:21:50;;;;;;;3.65;1.67;;;15.90;81.30;;;;;;5094000;28;20047;-88
2021/08/19 03:24:16;;;;;;;2.97;1.45;;;15.90;82.00;;;;;;5093181;28;20016;-87
2021/08/19 03:26:41;;;;;;;6.20;1.65;;;16.00;81.60;;;;;;5093670;28;20031;-87
2021/08/19 03:29:08;;;;;;;2.15;1.33;;;16.00;81.90;;;;;;5093743;28;20107;-87
2021/08/19 03:31:34;;;;;;;3.25;1.60;;;16.00;81.80;;;;;;5110932;28;20036;-87
2021/08/19 03:33:59;;;;;;;3.00;1.73;;;16.00;81.40;;;;;;5093425;28;20401;-87
2021/08/19 03:36:25;;;;;;;3.40;1.67;;;16.00;82.00;;;;;;5114057;28;20025;-87
2021/08/19 03:38:52;;;;;;;1.90;1.35;;;16.00;81.40;;;;;;5097555;28;20066;-87
2021/08/19 03:41:18;;;;;;;1.83;1.30;;;16.00;81.60;;;;;;5097826;28;20085;-87
2021/08/19 03:43:46;;;;;;;3.13;1.73;;;16.00;81.70;;;;;;5097991;28;20035;-87
2021/08/19 03:46:13;;;;;;;3.20;1.80;;;15.90;81.30;;;;;;5097737;28;20028;-87
2021/08/19 03:48:39;;;;;;;2.05;1.48;;;15.90;81.60;;;;;;5116141;28;20023;-88
2021/08/19 03:51:05;;;;;;;2.13;1.40;;;16.00;81.90;;;;;;5097325;28;20022;-87
2021/08/19 03:53:31;;;;;;;3.30;1.85;;;16.00;81.70;;;;;;5097592;28;20031;-87
2021/08/19 03:55:57;;;;;;;2.50;1.85;;;16.00;81.30;;;;;;5097837;28;20114;-87
2021/08/19 03:58:23;;;;;;;3.28;1.80;;;15.90;81.40;;;;;;5096849;28;20506;-87
2021/08/19 04:00:50;;;;;;;2.40;1.50;;;15.90;81.50;;;;;;5097149;28;20528;-87
2021/08/19 04:03:16;;;;;;;2.30;1.30;;;16.00;81.90;;;;;;5096026;28;20023;-87
2021/08/19 04:05:42;;;;;;;4.28;1.80;;;16.00;81.30;;;;;;5115132;28;20376;-87
2021/08/19 04:08:08;;;;;;;3.00;1.67;;;15.90;82.00;;;;;;5097057;28;20084;-87
2021/08/19 04:10:34;;;;;;;2.60;1.70;;;15.90;82.10;;;;;;5096632;28;20039;-87
2021/08/19 04:12:59;;;;;;;3.00;2.08;;;16.00;82.00;;;;;;5096567;28;20035;-87
2021/08/19 04:15:25;;;;;;;3.50;2.10;;;16.00;81.50;;;;;;5096191;28;20023;-87
2021/08/19 04:17:54;;;;;;;3.10;1.70;;;15.90;81.80;;;;;;5096426;28;20126;-87
2021/08/19 04:20:20;;;;;;;3.20;1.90;;;16.00;82.20;;;;;;5097071;28;20552;-88
2021/08/19 04:22:46;;;;;;;2.85;1.90;;;16.00;82.10;;;;;;5097485;28;20036;-87
2021/08/19 04:25:12;;;;;;;3.17;1.75;;;15.90;82.20;;;;;;5096613;28;20380;-87
2021/08/19 04:27:39;;;;;;;3.30;1.85;;;16.00;82.00;;;;;;5096560;28;20080;-87
2021/08/19 04:30:06;;;;;;;3.40;1.98;;;15.90;81.80;;;;;;5115070;28;20012;-87
2021/08/19 04:32:32;;;;;;;2.97;1.70;;;15.90;81.80;;;;;;5097055;28;20036;-87
2021/08/19 04:34:57;;;;;;;2.47;1.50;;;15.90;82.10;;;;;;5097269;28;20517;-87
2021/08/19 04:37:23;;;;;;;4.35;2.08;;;16.00;82.00;;;;;;5096527;28;20546;-86
2021/08/19 04:39:49;;;;;;;4.47;2.00;;;15.90;81.90;;;;;;5114635;28;20104;-86
2021/08/19 04:42:14;;;;;;;3.70;1.75;;;15.90;82.10;;;;;;5096246;28;20130;-87
2021/08/19 04:44:40;;;;;;;4.22;1.80;;;15.90;82.20;;;;;;5096490;28;20110;-87
2021/08/19 04:47:06;;;;;;;2.92;1.88;;;15.80;81.70;;;;;;5096595;28;20441;-88
2021/08/19 04:49:32;;;;;;;3.13;1.83;;;15.80;81.40;;;;;;5096624;28;20031;-87
2021/08/19 04:51:57;;;;;;;3.33;1.88;;;15.80;81.60;;;;;;5096185;28;20028;-87
2021/08/19 04:54:23;;;;;;;3.63;1.90;;;15.70;81.20;;;;;;5095921;28;20081;-87
2021/08/19 04:56:49;;;;;;;3.08;2.10;;;15.70;81.20;;;;;;5096261;28;20110;-87
2021/08/19 04:59:14;;;;;;;3.05;1.88;;;15.70;81.20;;;;;;5096495;28;20030;-87
2021/08/19 05:01:40;;;;;;;2.92;1.77;;;15.70;81.40;;;;;;5096604;28;20118;-87
2021/08/19 05:04:06;;;;;;;2.13;1.67;;;15.60;81.00;;;;;;5096200;28;20035;-87
2021/08/19 05:06:33;;;;;;;2.90;1.52;;;15.70;81.10;;;;;;5095616;28;20034;-87
2021/08/19 05:09:00;;;;;;;2.40;1.52;;;15.70;81.20;;;;;;5097785;28;20069;-87
2021/08/19 05:11:26;;;;;;;2.10;1.48;;;15.70;81.10;;;;;;5096598;28;20524;-87
2021/08/19 05:13:57;;;;;;;2.13;1.60;;;15.70;81.00;;;;;;5096659;28;20020;-87
2021/08/19 05:16:22;;;;;;;2.00;1.50;;;15.70;80.50;;;;;;5096395;28;20043;-87
2021/08/19 05:18:48;;;;;;;3.20;1.50;;;15.60;79.80;;;;;;5114016;28;20040;-87
2021/08/19 05:21:14;;;;;;;3.20;1.50;;;15.70;80.20;;;;;;5095379;28;20075;-86
2021/08/19 05:23:40;;;;;;;2.42;1.40;;;15.60;80.40;;;;;;5095029;28;20046;-87
2021/08/19 05:26:06;;;;;;;2.55;1.40;;;15.60;79.80;;;;;;5096353;28;20045;-87
2021/08/19 05:28:33;;;;;;;1.90;1.55;;;15.60;79.60;;;;;;5095955;28;20084;-88
2021/08/19 05:30:59;;;;;;;4.70;1.90;;;15.60;80.10;;;;;;5095241;28;20039;-87
2021/08/19 05:33:24;;;;;;;2.83;1.40;;;15.60;80.20;;;;;;5095978;28;20024;-87
2021/08/19 05:35:50;;;;;;;2.67;1.35;;;15.60;80.30;;;;;;5114070;28;20028;-87
2021/08/19 05:38:15;;;;;;;1.95;1.55;;;15.60;79.60;;;;;;5095958;28;20027;-87
2021/08/19 05:40:41;;;;;;;3.42;1.52;;;15.60;79.60;;;;;;5095967;28;20027;-88
2021/08/19 05:43:07;;;;;;;2.25;1.48;;;15.60;79.80;;;;;;5095381;28;20063;-87
2021/08/19 05:45:33;;;;;;;2.67;1.45;;;15.70;79.90;;;;;;5095069;28;20039;-89
2021/08/19 05:48:01;;;;;;;2.47;1.48;;;15.70;80.00;;;;;;5095108;28;20027;-88
2021/08/19 05:50:27;;;;;;;3.40;1.83;;;15.70;80.20;;;;;;5095444;28;20028;-88
2021/08/19 05:52:53;;;;;;;2.83;1.77;;;15.70;79.90;;;;;;5113766;28;20020;-88
2021/08/19 05:55:19;;;;;;;3.10;1.60;;;15.70;79.40;;;;;;5094833;28;20028;-87
2021/08/19 05:57:46;;;;;;;3.33;1.85;;;15.60;79.60;;;;;;5094872;28;20236;-87
2021/08/19 06:00:13;;;;;;;2.83;1.42;;;15.70;79.80;;;;;;5094180;28;20080;-88
2021/08/19 06:02:39;;;;;;;3.20;1.80;;;15.70;78.90;;;;;;5095640;28;20434;-87
2021/08/19 06:05:05;;;;;;;3.40;1.90;;;15.70;79.30;;;;;;5095730;28;20029;-87
2021/08/19 06:07:30;;;;;;;3.92;1.70;;;15.70;79.80;;;;;;5109068;28;20048;-88
2021/08/19 06:09:56;;;;;;;3.33;1.80;;;15.70;79.10;;;;;;5094588;28;20058;-88
2021/08/19 06:12:22;;;;;;;3.33;1.98;;;15.80;79.20;;;;;;5094456;28;20031;-87
2021/08/19 06:14:47;;;;;;;2.47;1.60;;;15.80;79.60;;;;;;5094613;28;20035;-88
2021/08/19 06:17:13;;;;;;;2.78;1.88;;;15.80;79.90;;;;;;5095037;28;20031;-87
2021/08/19 06:19:38;;;;;;;3.17;1.70;;;15.90;79.60;;;;;;5095380;28;20039;-87
2021/08/19 06:22:05;;;;;;;3.55;1.50;;;16.00;79.50;;;;;;5094441;28;20550;-87
2021/08/19 06:24:30;;;;;;;2.85;1.70;;;16.20;79.30;;;;;;5094349;28;20057;-87
2021/08/19 06:26:56;;;;;;;2.85;1.98;;;16.10;78.90;;;;;;5113198;28;20812;-88
2021/08/19 06:29:22;;;;;;;2.65;1.58;;;16.10;78.70;;;;;;5094612;28;20429;-87
2021/08/19 06:31:47;;;;;;;3.78;1.85;;;16.10;78.90;;;;;;5115037;27;20043;-88
2021/08/19 06:34:13;;;;;;;3.10;1.67;;;16.10;78.70;;;;;;5092117;28;20023;-88
2021/08/19 06:36:38;;;;;;;2.90;1.60;;;16.10;78.40;;;;;;5094187;28;20036;-88
2021/08/19 06:39:04;;;;;;;2.50;1.70;;;16.10;77.80;;;;;;5094183;28;20015;-87
2021/08/19 06:41:30;;;;;;;3.25;1.67;;;16.10;78.00;;;;;;5094585;28;20039;-87
2021/08/19 06:43:55;;;;;;;2.28;1.60;;;16.10;78.20;;;;;;5094973;28;20364;-87
2021/08/19 06:46:21;;;;;;;3.05;1.63;;;16.10;77.40;;;;;;5093082;28;20020;-88
2021/08/19 06:48:47;;;;;;;4.35;1.75;;;16.00;77.40;;;;;;5094142;28;20057;-87
2021/08/19 06:51:12;;;;;;;3.08;1.55;;;16.10;77.80;;;;;;5112120;28;20030;-87
2021/08/19 06:53:38;;;;;;;2.65;1.70;;;16.10;78.20;;;;;;5093423;28;20023;-87
2021/08/19 06:56:04;;;;;;;3.60;1.65;;;16.20;77.90;;;;;;5094902;28;20031;-87
2021/08/19 06:58:30;;;;;;;2.60;1.70;;;16.20;77.60;;;;;;5093784;28;20110;-88
2021/08/19 07:00:56;;;;;;;2.67;1.77;;;16.20;77.30;;;;;;5094169;28;20056;-88
2021/08/19 07:03:23;;;;;;;4.30;1.80;;;16.10;76.90;;;;;;5094103;28;20472;-89
2021/08/19 07:05:49;;;;;;;2.65;1.70;;;16.10;77.00;;;;;;5094352;28;20452;-87
2021/08/19 07:08:15;;;;;;;2.97;1.75;;;16.00;77.00;;;;;;5094473;28;20072;-88
2021/08/19 07:10:43;;;;;;;2.33;1.75;;;15.90;77.00;;;;;;5093881;28;20020;-87
2021/08/19 07:13:09;;;;;;;3.58;1.88;;;15.80;77.10;;;;;;5090761;28;20031;-86
2021/08/19 07:15:35;;;;;;;3.50;2.08;;;15.80;77.40;;;;;;5087500;28;20119;-86
2021/08/19 07:18:00;;;;;;;3.67;2.05;;;15.90;78.40;;;;;;5094354;28;20071;-88
2021/08/19 07:20:26;;;;;;;2.88;1.60;;;15.90;77.70;;;;;;5093877;28;20493;-88
2021/08/19 07:22:52;;;;;;;2.50;1.42;;;15.90;77.60;;;;;;5094537;28;20024;-88
2021/08/19 07:25:23;;;;;;;3.28;2.00;;;15.90;77.70;;;;;;5090978;28;20020;-87
2021/08/19 07:27:50;;;;;;;2.17;1.38;;;16.00;77.00;;;;;;5111793;28;20118;-88
2021/08/19 07:30:17;;;;;;;3.03;1.70;;;16.00;77.10;;;;;;5093132;28;20016;-87
2021/08/19 07:32:43;;;;;;;3.00;1.58;;;16.00;77.10;;;;;;5090643;28;20404;-87
2021/08/19 07:35:09;;;;;;;2.85;1.40;;;16.00;76.40;;;;;;5093954;28;20472;-87
2021/08/19 07:37:48;;;;;;;2.05;1.40;;;16.00;76.60;;;;;;5094202;28;20119;-87
2021/08/19 07:40:14;;;;;;;2.92;1.58;;;16.10;76.70;;;;;;5092803;28;20426;-86
2021/08/19 07:42:40;;;;;;;3.47;1.75;;;16.10;76.30;;;;;;5094192;28;20134;-87
2021/08/19 07:45:08;;;;;;;3.17;1.70;;;16.10;76.10;;;;;;5111906;28;20099;-87
2021/08/19 07:47:34;;;;;;;2.70;1.58;;;16.10;75.90;;;;;;5093789;28;20027;-87
2021/08/19 07:50:01;;;;;;;3.20;1.63;;;16.10;75.60;;;;;;5091825;28;20118;-87
2021/08/19 07:52:27;;;;;;;5.45;1.77;;;16.10;76.00;;;;;;5096364;28;20110;-88
2021/08/19 07:54:53;;;;;;;4.03;2.17;;;16.20;76.00;;;;;;5094147;28;20062;-87
2021/08/19 07:57:19;;;;;;;3.72;1.80;;;16.30;76.40;;;;;;5094334;28;20035;-88
2021/08/19 07:59:45;;;;;;;3.83;1.67;;;16.40;76.10;;;;;;5099180;27;20030;-88
2021/08/19 08:02:10;;;;;;;2.45;1.38;;;16.40;76.10;;;;;;5114111;28;20067;-87
2021/08/19 08:04:36;;;;;;;2.45;1.50;;;16.50;75.90;;;;;;5093206;28;20020;-88
2021/08/19 08:07:02;;;;;;;2.72;1.55;;;16.60;76.60;;;;;;5093874;28;20084;-87
2021/08/19 08:09:28;;;;;;;8.85;4.60;;;16.70;75.60;;;;;;5094090;28;20015;-88
2021/08/19 08:11:53;;;;;;;4.63;2.42;;;16.70;75.30;;;;;;5094149;28;20031;-88
2021/08/19 08:14:19;;;;;;;3.60;2.10;;;16.80;74.60;;;;;;5111992;28;20008;-87
2021/08/19 08:16:45;;;;;;;5.38;2.70;;;16.70;74.50;;;;;;5093901;28;20391;-87
2021/08/19 08:19:10;;;;;;;5.93;3.55;;;16.80;74.80;;;;;;5093237;28;20101;-88
2021/08/19 08:21:38;;;;;;;7.18;3.97;;;16.80;74.60;;;;;;5111452;28;20104;-88
2021/08/19 08:24:04;;;;;;;9.35;4.47;;;16.80;74.50;;;;;;5096601;28;20217;-88
2021/08/19 08:26:30;;;;;;;4.63;2.85;;;16.70;74.30;;;;;;5097305;28;20030;-87
2021/08/19 08:28:57;;;;;;;5.47;3.00;;;16.70;74.50;;;;;;5097361;28;20102;-88
2021/08/19 08:31:23;;;;;;;6.10;3.35;;;16.80;74.60;;;;;;5096628;28;20373;-89
2021/08/19 08:33:51;;;;;;;6.22;3.40;;;16.80;74.50;;;;;;5096041;28;20034;-88
2021/08/19 08:36:17;;;;;;;3.00;1.85;;;16.80;74.10;;;;;;5096585;28;20383;-87
2021/08/19 08:38:44;;;;;;;3.00;2.05;;;16.80;74.40;;;;;;5096981;28;20032;-88
2021/08/19 08:41:11;;;;;;;4.28;2.00;;;16.80;74.40;;;;;;5097190;28;20020;-87
2021/08/19 08:43:37;;;;;;;3.75;1.58;;;16.80;74.00;;;;;;5097513;28;20027;-87
2021/08/19 08:46:06;;;;;;;3.20;1.75;;;16.90;74.80;;;;;;5096631;28;20489;-88
2021/08/19 08:48:32;;;;;;;2.10;1.60;;;17.00;75.00;;;;;;5096812;28;20028;-87
2021/08/19 08:50:58;;;;;;;3.45;1.60;;;17.00;74.80;;;;;;5095812;28;20027;-87
2021/08/19 08:53:28;;;;;;;3.17;1.52;;;17.10;74.80;;;;;;5096804;28;20031;-87
2021/08/19 08:55:53;;;;;;;2.50;1.65;;;17.20;74.90;;;;;;5096920;28;20046;-87
2021/08/19 08:58:20;;;;;;;2.95;1.75;;;17.30;74.70;;;;;;5096400;28;20472;-87
2021/08/19 09:00:48;;;;;;;1.90;1.30;;;17.50;74.70;;;;;;5096235;28;20027;-88
2021/08/19 09:03:15;;;;;;;2.80;1.70;;;17.60;74.80;;;;;;5096370;28;20070;-89
2021/08/19 09:05:43;;;;;;;3.08;1.65;;;17.80;74.80;;;;;;5096366;28;20041;-87
2021/08/19 09:08:17;;;;;;;1.70;1.23;;;17.90;73.60;;;;;;5096413;28;20023;-88
2021/08/19 09:10:44;;;;;;;2.25;1.40;;;18.00;73.90;;;;;;5113295;28;20035;-87
2021/08/19 09:13:16;;;;;;;2.67;1.52;;;18.10;73.90;;;;;;5096347;28;20024;-87
2021/08/19 09:15:44;;;;;;;3.45;1.38;;;18.20;73.30;;;;;;5114093;28;20039;-88
2021/08/19 09:18:11;;;;;;;3.53;1.33;;;18.30;72.60;;;;;;5114281;28;20045;-88
2021/08/19 09:20:38;;;;;;;2.10;1.35;;;18.30;72.40;;;;;;5096358;28;20118;-88
2021/08/19 09:23:09;;;;;;;1.95;1.35;;;18.30;71.70;;;;;;5096965;28;20453;-88
2021/08/19 09:25:40;;;;;;;2.40;1.50;;;18.30;72.00;;;;;;5096088;28;20035;-88
2021/08/19 09:28:15;;;;;;;4.25;1.27;;;18.30;72.10;;;;;;5096507;28;20035;-88
2021/08/19 09:30:47;;;;;;;2.60;1.50;;;18.30;72.00;;;;;;5096194;28;20564;-87
2021/08/19 09:33:15;;;;;;;3.20;1.50;;;18.30;72.30;;;;;;5094761;28;20020;-88
2021/08/19 09:35:41;;;;;;;3.22;1.38;;;18.30;71.30;;;;;;5096027;28;20308;-88
2021/08/19 09:38:12;;;;;;;4.32;2.78;;;18.30;72.40;;;;;;5096555;28;20020;-87
2021/08/19 09:40:39;;;;;;;2.42;1.52;;;18.40;73.30;;;;;;5096488;28;20031;-87
2021/08/19 09:43:05;;;;;;;2.10;1.55;;;18.60;72.50;;;;;;5095802;28;20100;-88
2021/08/19 09:45:31;;;;;;;2.55;1.35;;;18.70;72.40;;;;;;5113393;28;20020;-88
2021/08/19 09:48:08;;;;;;;3.33;1.50;;;19.00;72.20;;;;;;5095660;28;20062;-88
2021/08/19 09:50:35;;;;;;;2.38;1.40;;;19.10;72.30;;;;;;5113242;28;20077;-88
2021/08/19 09:53:23;;;;;;;1.65;0.90;;;19.30;71.70;;;;;;5096117;28;20496;-87
2021/08/19 09:55:53;;;;;;;1.75;1.30;;;19.50;72.00;;;;;;5094219;28;20059;-88
2021/08/19 09:58:30;;;;;;;2.50;1.40;;;19.60;70.20;;;;;;5113643;28;20118;-87
2021/08/19 10:00:56;;;;;;;4.05;2.53;;;19.70;69.90;;;;;;5094927;28;20442;-88
2021/08/19 10:03:23;;;;;;;5.15;2.72;;;19.70;70.00;;;;;;5095196;28;20035;-88
2021/08/19 10:05:48;;;;;;;3.72;2.20;;;19.80;68.80;;;;;;5094456;28;20028;-87
2021/08/19 10:08:14;;;;;;;3.85;2.03;;;19.90;68.60;;;;;;5095095;28;20027;-87
2021/08/19 10:10:43;;;;;;;2.58;1.27;;;20.00;69.70;;;;;;5095284;28;20020;-88
2021/08/19 10:13:11;;;;;;;2.15;1.27;;;20.10;69.00;;;;;;5093178;28;20032;-88
2021/08/19 10:15:39;;;;;;;2.65;1.40;;;20.20;69.30;;;;;;5113336;28;20027;-88
2021/08/19 10:18:06;;;;;;;3.17;1.40;;;20.20;68.50;;;;;;5095018;28;20511;-88
2021/08/19 10:20:41;;;;;;;2.40;1.17;;;20.20;68.60;;;;;;5095048;28;20058;-88
2021/08/19 10:23:09;;;;;;;3.20;1.50;;;20.20;67.70;;;;;;5087871;28;20027;-87
2021/08/19 10:25:35;;;;;;;1.25;1.00;;;20.10;67.60;;;;;;5094818;28;20084;-88
2021/08/19 10:28:21;;;;;;;2.63;1.38;;;19.90;67.90;;;;;;5091288;28;20114;-89
2021/08/19 10:30:50;;;;;;;1.50;1.10;;;20.10;69.30;;;;;;5111403;28;20077;-88
2021/08/19 10:33:37;;;;;;;2.17;1.38;;;20.20;68.90;;;;;;5084002;28;20027;-88
2021/08/19 10:36:12;;;;;;;1.90;1.45;;;20.40;68.40;;;;;;5094198;28;20020;-87
2021/08/19 10:38:42;;;;;;;2.35;1.60;;;20.40;66.70;;;;;;5079011;28;20384;-88
2021/08/19 10:41:30;;;;;;;2.28;1.40;;;20.20;66.30;;;;;;5094648;28;20487;-88
2021/08/19 10:44:06;;;;;;;2.78;1.40;;;20.20;68.00;;;;;;5089182;28;20051;-87
2021/08/19 10:46:49;;;;;;;2.13;1.60;;;20.40;67.90;;;;;;5129794;27;20119;-88
2021/08/19 10:49:41;;;;;;;3.22;1.92;;;20.60;67.60;;;;;;5094823;28;20028;-88
2021/08/19 10:52:07;;;;;;;2.72;1.55;;;20.70;68.40;;;;;;5091238;28;20457;-86
2021/08/19 10:54:35;;;;;;;2.55;1.50;;;20.80;66.80;;;;;;5112236;28;20031;-87
2021/08/19 10:57:32;;;;;;;3.00;1.05;;;21.00;65.90;;;;;;5093714;28;20084;-87
2021/08/19 11:00:17;;;;;;;1.92;1.20;;;21.00;67.70;;;;;;5081398;28;20372;-88
2021/08/19 11:02:45;;;;;;;2.05;1.00;;;21.20;66.80;;;;;;5078616;28;20058;-87
2021/08/19 11:05:33;;;;;;;2.70;1.13;;;21.20;66.00;;;;;;5094061;28;20032;-87
2021/08/19 11:08:00;;;;;;;1.80;1.20;;;21.30;65.70;;;;;;5094216;28;20045;-87
2021/08/19 11:10:38;;;;;;;1.33;0.80;;;21.30;66.10;;;;;;5094641;28;20027;-89
2021/08/19 11:13:06;;;;;;;1.92;1.20;;;21.10;65.60;;;;;;5128042;27;20399;-89
2021/08/19 11:15:36;;;;;;;1.63;0.90;;;21.00;64.90;;;;;;5083817;28;20016;-88
2021/08/19 11:18:02;;;;;;;2.83;1.27;;;21.00;66.50;;;;;;5083555;28;20069;-88
2021/08/19 11:20:33;;;;;;;1.67;1.20;;;21.10;66.20;;;;;;5093689;28;20016;-87
2021/08/19 11:23:07;;;;;;;3.53;0.93;;;21.10;65.40;;;;;;5094067;28;20080;-88
2021/08/19 11:25:36;;;;;;;2.38;1.33;;;21.10;65.30;;;;;;5084434;28;20397;-87
2021/08/19 11:28:19;;;;;;;1.65;1.20;;;20.80;64.10;;;;;;5089300;28;20455;-88
2021/08/19 11:30:48;;;;;;;1.70;1.13;;;20.70;65.60;;;;;;5111787;28;20080;-89
2021/08/19 11:33:24;;;;;;;1.98;1.20;;;20.80;65.50;;;;;;5093489;28;20495;-88
2021/08/19 11:35:52;;;;;;;1.80;1.10;;;21.00;65.70;;;;;;5093178;28;20110;-88
2021/08/19 11:38:21;;;;;;;1.88;1.30;;;21.10;65.60;;;;;;5093583;28;20034;-88
2021/08/19 11:40:49;;;;;;;2.25;1.10;;;21.20;65.50;;;;;;5091213;28;20065;-85
2021/08/19 11:43:33;;;;;;;2.00;1.17;;;21.00;64.00;;;;;;5127850;27;20031;-89
2021/08/19 11:46:10;;;;;;;2.95;1.27;;;21.00;65.60;;;;;;5093936;28;20080;-88
2021/08/19 11:48:38;;;;;;;1.85;1.17;;;21.20;65.20;;;;;;5093510;28;20058;-89
2021/08/19 11:51:05;;;;;;;2.22;0.95;;;21.20;64.10;;;;;;5093253;28;20480;-87
2021/08/19 11:53:31;;;;;;;2.55;1.75;;;21.30;64.40;;;;;;5093942;28;20027;-88
2021/08/19 11:56:12;;;;;;;1.90;1.20;;;21.50;64.40;;;;;;5094389;28;20118;-87
2021/08/19 11:58:38;;;;;;;3.50;2.00;;;21.50;64.80;;;;;;5114848;28;20072;-89
2021/08/19 12:01:06;;;;;;;2.65;1.60;;;21.60;64.50;;;;;;5086420;28;20024;-87
2021/08/19 12:03:40;;;;;;;14.77;9.20;;;21.80;64.60;;;;;;5097274;28;20454;-87
2021/08/19 12:06:19;;;;;;;5.68;3.67;;;21.90;64.50;;;;;;5095875;28;20093;-87
2021/08/19 12:09:02;;;;;;;3.58;2.60;;;22.00;64.60;;;;;;5097264;28;20031;-88
2021/08/19 12:11:31;;;;;;;7.65;5.50;;;22.10;64.20;;;;;;5116045;28;20054;-88
2021/08/19 12:13:58;;;;;;;9.57;7.38;;;22.00;63.20;;;;;;5098375;28;20024;-88
2021/08/19 12:16:27;;;;;;;8.75;5.43;;;22.00;63.40;;;;;;5096504;28;20027;-89
2021/08/19 12:19:10;;;;;;;3.85;2.25;;;21.80;62.70;;;;;;5078375;28;20508;-88
2021/08/19 12:21:53;;;;;;;3.92;2.33;;;21.70;63.60;;;;;;5072878;28;20045;-88
2021/08/19 12:24:32;;;;;;;3.80;1.95;;;21.50;63.50;;;;;;5072513;28;20446;-88
2021/08/19 12:27:10;;;;;;;2.67;1.73;;;21.50;63.60;;;;;;5073400;28;20492;-87
2021/08/19 12:29:51;;;;;;;2.25;1.30;;;21.20;64.10;;;;;;5057602;28;20574;-87
2021/08/19 12:32:36;;;;;;;3.13;1.98;;;21.20;64.70;;;;;;5071111;28;20036;-87
2021/08/19 12:35:08;;;;;;;1.90;1.33;;;21.30;64.50;;;;;;5073462;28;20032;-88
2021/08/19 12:37:36;;;;;;;15.35;8.93;;;21.30;63.80;;;;;;5072282;28;20025;-88
2021/08/19 12:40:28;;;;;;;3.33;2.22;;;21.40;64.50;;;;;;5072743;28;20032;-88
2021/08/19 12:43:12;;;;;;;4.53;2.90;;;21.40;64.40;;;;;;5100551;28;20041;-88
2021/08/19 12:45:39;;;;;;;2.85;1.60;;;21.50;64.40;;;;;;5066646;28;20028;-88
2021/08/19 12:48:10;;;;;;;4.68;3.20;;;21.40;63.50;;;;;;5072840;28;20467;-88
2021/08/19 12:50:38;;;;;;;2.05;1.50;;;21.60;64.10;;;;;;5073213;28;20009;-87
2021/08/19 12:53:04;;;;;;;2.38;1.40;;;21.60;63.20;;;;;;5073183;28;20032;-87